Time;durP1;ratioP1;P1;durP2;ratioP2;P2;SDS_P1;SDS_P2;PMS_P1;PMS_P2;Temp;Humidity;BMP_temperature;BMP_pressure;BME280_temperature;BME280_humidity;BME280_pressure;Samples;Min_cycle;Max_cycle;Signal;HPM_P1;HPM_P2
2022/03/28 00:01:50;;;;;;;46.80;25.10;;;;;;;;;;4463685;32;20235;-52
2022/03/28 00:04:15;;;;;;;46.60;23.73;;;;;;;;;;4463026;32;20227;-52
2022/03/28 00:06:40;;;;;;;49.80;27.83;;;;;;;;;;4447722;32;20209;-54
2022/03/28 00:09:06;;;;;;;56.53;31.63;;;;;;;;;;4449862;32;20229;-53
2022/03/28 00:11:33;;;;;;;57.70;29.40;;;;;;;;;;4461997;32;20365;-53
2022/03/28 00:13:58;;;;;;;48.77;24.83;;;;;;;;;;4465936;32;20274;-54
2022/03/28 00:16:24;;;;;;;49.17;23.60;;;;;;;;;;4465215;32;20239;-52
2022/03/28 00:18:49;;;;;;;54.47;26.87;;;;;;;;;;4466328;32;20299;-53
2022/03/28 00:21:15;;;;;;;54.10;32.57;;;;;;;;;;4458838;32;20331;-52
2022/03/28 00:23:41;;;;;;;47.33;25.43;;;;;;;;;;4451256;32;20228;-53
2022/03/28 00:26:06;;;;;;;48.03;23.37;;;;;;;;;;4451037;32;20298;-53
2022/03/28 00:28:32;;;;;;;46.33;24.73;;;;;;;;;;4450640;32;20252;-53
2022/03/28 00:30:57;;;;;;;50.40;23.27;;;;;;;;;;4450846;32;20326;-52
2022/03/28 00:33:23;;;;;;;39.47;21.60;;;;;;;;;;4450996;32;20707;-52
2022/03/28 00:35:48;;;;;;;43.03;22.93;;;;;;;;;;4450596;32;20637;-53
2022/03/28 00:38:14;;;;;;;45.03;23.17;;;;;;;;;;4450835;32;20229;-53
2022/03/28 00:40:40;;;;;;;70.67;24.47;;;;;;;;;;4450540;32;20390;-54
2022/03/28 00:43:08;;;;;;;46.27;20.80;;;;;;;;;;4450580;32;20217;-54
2022/03/28 00:45:38;;;;;;;38.07;18.87;;;;;;;;;;4450833;32;20528;-55
2022/03/28 00:48:06;;;;;;;37.47;17.83;;;;;;;;;;4450450;32;20263;-54
2022/03/28 00:50:32;;;;;;;37.13;18.53;;;;;;;;;;4450735;32;20234;-53
2022/03/28 00:52:59;;;;;;;26.57;14.50;;;;;;;;;;4450607;32;20232;-54
2022/03/28 00:55:25;;;;;;;59.13;25.87;;;;;;;;;;4450437;32;20212;-54
2022/03/28 00:57:50;;;;;;;50.33;24.47;;;;;;;;;;4457206;32;20690;-54
2022/03/28 01:00:16;;;;;;;46.13;22.67;;;;;;;;;;4466075;32;20267;-53
2022/03/28 01:02:42;;;;;;;42.07;21.20;;;;;;;;;;4456794;32;20564;-54
2022/03/28 01:05:10;;;;;;;39.70;19.83;;;;;;;;;;4454880;32;20330;-55
2022/03/28 01:07:38;;;;;;;32.40;17.20;;;;;;;;;;4450233;32;20225;-54
2022/03/28 01:10:04;;;;;;;33.47;17.07;;;;;;;;;;4450595;32;20201;-53
2022/03/28 01:12:31;;;;;;;34.40;18.03;;;;;;;;;;4448911;32;20415;-55
2022/03/28 01:14:57;;;;;;;37.37;17.03;;;;;;;;;;4450168;32;20231;-54
2022/03/28 01:20:07;;;;;;;39.93;17.40;;;;;;;;;;4450056;32;20552;-53
2022/03/28 01:22:33;;;;;;;29.87;16.00;;;;;;;;;;4450272;32;20266;-54
2022/03/28 01:25:01;;;;;;;30.80;15.27;;;;;;;;;;4449621;32;20287;-53
2022/03/28 01:27:27;;;;;;;29.63;15.37;;;;;;;;;;4450040;32;20533;-53
2022/03/28 01:29:53;;;;;;;34.17;16.27;;;;;;;;;;4450008;32;20209;-53
2022/03/28 01:32:18;;;;;;;30.30;16.10;;;;;;;;;;4450008;32;20565;-54
2022/03/28 01:34:44;;;;;;;30.43;16.47;;;;;;;;;;4450047;32;20287;-53
2022/03/28 01:37:09;;;;;;;29.30;17.33;;;;;;;;;;4464427;32;20248;-54
2022/03/28 01:39:34;;;;;;;35.63;17.87;;;;;;;;;;4465477;32;20323;-53
2022/03/28 01:42:00;;;;;;;32.73;19.57;;;;;;;;;;4464921;32;20265;-53
2022/03/28 01:44:26;;;;;;;42.07;19.50;;;;;;;;;;4463906;32;20744;-52
2022/03/28 01:46:51;;;;;;;41.33;18.70;;;;;;;;;;4465092;32;20230;-52
2022/03/28 01:49:19;;;;;;;33.17;18.63;;;;;;;;;;4465238;32;20228;-52
2022/03/28 01:51:46;;;;;;;36.67;18.43;;;;;;;;;;4465074;32;20279;-53
2022/03/28 01:54:12;;;;;;;30.77;15.37;;;;;;;;;;4464795;32;20258;-53
2022/03/28 01:56:38;;;;;;;44.40;21.03;;;;;;;;;;4449334;32;20261;-51
2022/03/28 01:59:05;;;;;;;36.53;18.43;;;;;;;;;;4449217;32;20232;-52
2022/03/28 02:01:31;;;;;;;41.30;18.23;;;;;;;;;;4449276;32;20200;-53
2022/03/28 02:03:57;;;;;;;33.40;18.43;;;;;;;;;;4449736;32;20348;-54
2022/03/28 02:06:23;;;;;;;33.33;18.83;;;;;;;;;;4449274;32;20580;-53
2022/03/28 02:08:48;;;;;;;32.97;17.73;;;;;;;;;;4449659;32;20692;-53
2022/03/28 02:11:14;;;;;;;40.13;17.53;;;;;;;;;;4449250;32;20362;-53
2022/03/28 02:13:39;;;;;;;40.37;20.30;;;;;;;;;;4449457;32;20216;-52
2022/03/28 02:16:06;;;;;;;42.97;20.57;;;;;;;;;;4449188;32;20287;-53
2022/03/28 02:18:31;;;;;;;35.17;20.47;;;;;;;;;;4449503;32;20224;-54
2022/03/28 02:20:57;;;;;;;43.23;19.67;;;;;;;;;;4456192;32;20313;-53
2022/03/28 02:23:23;;;;;;;41.07;21.23;;;;;;;;;;4464860;32;20288;-53
2022/03/28 02:25:49;;;;;;;33.43;18.40;;;;;;;;;;4464701;32;20317;-54
2022/03/28 02:28:15;;;;;;;32.30;17.80;;;;;;;;;;4464657;32;20231;-53
2022/03/28 02:30:42;;;;;;;30.00;16.23;;;;;;;;;;4464564;32;20274;-53
2022/03/28 02:33:08;;;;;;;36.50;18.20;;;;;;;;;;4463299;32;20661;-53
2022/03/28 02:35:34;;;;;;;33.10;18.43;;;;;;;;;;4459271;32;20375;-52
2022/03/28 02:38:01;;;;;;;54.00;21.77;;;;;;;;;;4448852;32;20327;-53
2022/03/28 02:40:31;;;;;;;39.67;21.67;;;;;;;;;;4448975;32;20208;-55
2022/03/28 02:42:58;;;;;;;43.23;20.63;;;;;;;;;;4448778;32;20251;-52
2022/03/28 02:45:30;;;;;;;46.97;21.17;;;;;;;;;;4448818;32;20440;-53
2022/03/28 02:47:56;;;;;;;39.37;19.70;;;;;;;;;;4448658;32;20262;-53
2022/03/28 02:50:22;;;;;;;35.40;19.23;;;;;;;;;;4449060;32;20204;-53
2022/03/28 02:52:47;;;;;;;34.43;17.27;;;;;;;;;;4448622;32;20276;-53
2022/03/28 02:55:14;;;;;;;37.70;18.33;;;;;;;;;;4448647;32;20377;-52
2022/03/28 02:57:39;;;;;;;35.53;17.73;;;;;;;;;;4453432;32;20282;-53
2022/03/28 03:00:10;;;;;;;49.40;17.70;;;;;;;;;;4448674;32;20695;-55
2022/03/28 03:02:36;;;;;;;33.83;15.97;;;;;;;;;;4448783;32;20240;-52
2022/03/28 03:05:02;;;;;;;31.20;16.20;;;;;;;;;;4453297;32;20224;-54
2022/03/28 03:07:28;;;;;;;35.10;17.87;;;;;;;;;;4448534;32;20299;-52
2022/03/28 03:09:53;;;;;;;33.77;16.80;;;;;;;;;;4448388;32;20292;-53
2022/03/28 03:12:19;;;;;;;40.87;18.97;;;;;;;;;;4448120;32;20631;-53
2022/03/28 03:14:44;;;;;;;45.90;19.90;;;;;;;;;;4448621;32;20319;-53
2022/03/28 03:17:10;;;;;;;44.00;21.50;;;;;;;;;;4447889;32;20665;-53
2022/03/28 03:19:35;;;;;;;46.70;22.70;;;;;;;;;;4448872;32;20338;-52
2022/03/28 03:22:01;;;;;;;38.67;22.67;;;;;;;;;;4448147;32;20232;-52
2022/03/28 03:24:26;;;;;;;43.93;22.47;;;;;;;;;;4448364;32;20263;-53
2022/03/28 03:26:52;;;;;;;55.07;26.33;;;;;;;;;;4448179;32;20201;-53
2022/03/28 03:29:17;;;;;;;53.20;30.60;;;;;;;;;;4448434;32;20652;-54
2022/03/28 03:31:43;;;;;;;55.10;25.70;;;;;;;;;;4448277;32;20217;-52
2022/03/28 03:34:08;;;;;;;40.27;22.27;;;;;;;;;;4448191;32;20311;-53
2022/03/28 03:36:34;;;;;;;47.43;25.53;;;;;;;;;;4458903;32;20586;-52
2022/03/28 03:38:59;;;;;;;43.07;24.07;;;;;;;;;;4464182;32;20250;-52
2022/03/28 03:41:25;;;;;;;44.47;23.90;;;;;;;;;;4463438;32;20236;-53
2022/03/28 03:43:50;;;;;;;46.97;25.00;;;;;;;;;;4449712;32;20291;-54
2022/03/28 03:46:16;;;;;;;49.97;24.57;;;;;;;;;;4462113;32;20287;-54
2022/03/28 03:48:42;;;;;;;46.63;23.83;;;;;;;;;;4463506;32;20239;-52
2022/03/28 03:51:07;;;;;;;48.87;23.93;;;;;;;;;;4456839;32;20268;-53
2022/03/28 03:53:33;;;;;;;52.80;23.23;;;;;;;;;;4448438;32;20232;-52
2022/03/28 03:55:59;;;;;;;42.33;22.53;;;;;;;;;;4447633;32;20330;-52
2022/03/28 03:58:25;;;;;;;40.27;22.30;;;;;;;;;;4448141;32;20220;-52
2022/03/28 04:00:51;;;;;;;42.27;23.53;;;;;;;;;;4447958;32;20204;-53
2022/03/28 04:03:16;;;;;;;50.30;27.17;;;;;;;;;;4448112;32;20605;-52
2022/03/28 04:05:42;;;;;;;51.63;25.87;;;;;;;;;;4453107;32;20367;-52
2022/03/28 04:08:07;;;;;;;52.47;25.83;;;;;;;;;;4448167;32;20235;-52
2022/03/28 04:10:34;;;;;;;56.43;30.33;;;;;;;;;;4448353;32;20378;-52
2022/03/28 04:13:00;;;;;;;59.77;29.63;;;;;;;;;;4447480;32;20240;-52
2022/03/28 04:15:27;;;;;;;64.00;30.53;;;;;;;;;;4448325;32;20286;-54
2022/03/28 04:17:52;;;;;;;77.23;40.03;;;;;;;;;;4447785;32;20223;-52
2022/03/28 04:20:18;;;;;;;80.93;37.60;;;;;;;;;;4447904;32;20657;-54
2022/03/28 04:22:45;;;;;;;77.50;38.33;;;;;;;;;;4447453;32;20729;-52
2022/03/28 04:25:12;;;;;;;83.57;41.00;;;;;;;;;;4447636;32;20327;-53
2022/03/28 04:27:38;;;;;;;79.50;36.83;;;;;;;;;;4447752;32;20244;-52
2022/03/28 04:30:08;;;;;;;71.73;37.33;;;;;;;;;;4447511;32;20724;-55
2022/03/28 04:32:34;;;;;;;74.57;34.87;;;;;;;;;;4446192;32;20584;-54
2022/03/28 04:35:00;;;;;;;52.63;29.97;;;;;;;;;;4447400;32;20343;-53
2022/03/28 04:37:26;;;;;;;81.23;38.20;;;;;;;;;;4447391;32;20349;-52
2022/03/28 04:39:51;;;;;;;47.63;28.13;;;;;;;;;;4447881;32;20306;-54
2022/03/28 04:42:17;;;;;;;60.03;27.97;;;;;;;;;;4447162;32;20279;-53
2022/03/28 04:44:42;;;;;;;58.40;26.97;;;;;;;;;;4447640;32;20298;-53
2022/03/28 04:47:08;;;;;;;60.00;29.97;;;;;;;;;;4447077;32;20285;-53
2022/03/28 04:49:34;;;;;;;51.37;25.50;;;;;;;;;;4455257;32;20643;-53
2022/03/28 04:52:00;;;;;;;52.83;27.20;;;;;;;;;;4446732;32;20354;-53
2022/03/28 04:54:25;;;;;;;56.07;27.87;;;;;;;;;;4447596;32;20711;-52
2022/03/28 04:56:51;;;;;;;58.60;31.17;;;;;;;;;;4447109;32;20279;-54
2022/03/28 04:59:16;;;;;;;59.63;29.70;;;;;;;;;;4449042;32;20441;-52
2022/03/28 05:01:42;;;;;;;65.03;27.27;;;;;;;;;;4449610;32;20253;-53
2022/03/28 05:04:07;;;;;;;50.03;26.73;;;;;;;;;;4449716;32;20292;-52
2022/03/28 05:06:33;;;;;;;57.67;28.93;;;;;;;;;;4454640;32;20220;-54
2022/03/28 05:08:58;;;;;;;51.80;27.03;;;;;;;;;;4450290;32;20295;-52
2022/03/28 05:11:24;;;;;;;62.97;28.60;;;;;;;;;;4450251;32;20250;-53
2022/03/28 05:13:50;;;;;;;56.00;27.23;;;;;;;;;;4449257;32;20319;-53
2022/03/28 05:16:16;;;;;;;51.80;27.93;;;;;;;;;;4450486;32;20299;-53
2022/03/28 05:18:43;;;;;;;59.23;27.80;;;;;;;;;;4449886;32;20224;-54
2022/03/28 05:21:09;;;;;;;82.83;41.57;;;;;;;;;;4450251;32;20263;-53
2022/03/28 05:23:34;;;;;;;68.70;33.33;;;;;;;;;;4450077;32;20283;-53
2022/03/28 05:26:01;;;;;;;73.70;33.63;;;;;;;;;;4449572;32;20686;-53
2022/03/28 05:28:26;;;;;;;76.10;36.37;;;;;;;;;;4449500;32;20260;-54
2022/03/28 05:30:52;;;;;;;76.97;34.30;;;;;;;;;;4450057;32;20298;-54
2022/03/28 05:33:18;;;;;;;66.13;31.87;;;;;;;;;;4449757;32;20274;-53
2022/03/28 05:35:44;;;;;;;79.23;32.57;;;;;;;;;;4449518;32;20279;-54
2022/03/28 05:38:10;;;;;;;60.57;30.63;;;;;;;;;;4448523;32;20331;-55
2022/03/28 05:40:37;;;;;;;79.87;32.37;;;;;;;;;;4449233;32;20359;-53
2022/03/28 05:43:03;;;;;;;54.70;29.33;;;;;;;;;;4446493;32;20592;-53
2022/03/28 05:45:29;;;;;;;73.47;35.73;;;;;;;;;;4448176;32;20390;-55
2022/03/28 05:47:54;;;;;;;58.87;30.77;;;;;;;;;;4447202;32;20593;-53
2022/03/28 05:50:20;;;;;;;70.30;32.80;;;;;;;;;;4448306;32;20406;-53
2022/03/28 05:52:45;;;;;;;64.93;32.93;;;;;;;;;;4448487;32;20577;-53
2022/03/28 05:55:11;;;;;;;52.37;25.00;;;;;;;;;;4448270;32;20354;-53
2022/03/28 05:57:37;;;;;;;41.70;19.77;;;;;;;;;;4448769;32;20259;-51
2022/03/28 06:00:05;;;;;;;35.10;16.40;;;;;;;;;;4449240;32;20390;-53
2022/03/28 06:02:31;;;;;;;35.53;16.47;;;;;;;;;;4449206;32;20229;-51
2022/03/28 06:04:57;;;;;;;22.37;14.20;;;;;;;;;;4453384;32;20262;-53
2022/03/28 06:07:22;;;;;;;28.73;16.63;;;;;;;;;;4464497;32;20197;-51
2022/03/28 06:09:48;;;;;;;30.80;18.97;;;;;;;;;;4464083;32;20376;-51
2022/03/28 06:12:15;;;;;;;34.57;20.63;;;;;;;;;;4463683;32;20208;-52
2022/03/28 06:14:40;;;;;;;49.07;23.50;;;;;;;;;;4463954;32;20342;-51
2022/03/28 06:17:06;;;;;;;48.83;25.07;;;;;;;;;;4464116;32;20716;-52
2022/03/28 06:19:31;;;;;;;39.20;23.27;;;;;;;;;;4464222;32;20358;-52
2022/03/28 06:21:57;;;;;;;57.40;26.70;;;;;;;;;;4464420;32;20652;-54
2022/03/28 06:24:23;;;;;;;65.27;26.93;;;;;;;;;;4458769;32;20296;-53
2022/03/28 06:26:49;;;;;;;46.70;28.20;;;;;;;;;;4448311;32;20371;-51
2022/03/28 06:29:15;;;;;;;52.23;26.70;;;;;;;;;;4448342;32;20255;-53
2022/03/28 06:31:41;;;;;;;59.60;28.60;;;;;;;;;;4448185;32;20362;-52
2022/03/28 06:34:07;;;;;;;63.10;27.43;;;;;;;;;;4448859;32;20228;-53
2022/03/28 06:36:33;;;;;;;49.00;27.53;;;;;;;;;;4447981;32;20284;-52
2022/03/28 06:39:00;;;;;;;48.20;27.97;;;;;;;;;;4448753;32;20299;-53
2022/03/28 06:41:25;;;;;;;54.93;28.83;;;;;;;;;;4448251;32;20221;-52
2022/03/28 06:43:51;;;;;;;55.23;31.93;;;;;;;;;;4448917;32;20220;-54
2022/03/28 06:46:16;;;;;;;51.93;30.50;;;;;;;;;;4448257;32;20586;-54
2022/03/28 06:48:42;;;;;;;50.10;26.53;;;;;;;;;;4448416;32;20694;-53
2022/03/28 06:51:08;;;;;;;57.33;29.07;;;;;;;;;;4438672;32;20453;-53
2022/03/28 06:53:33;;;;;;;59.87;29.03;;;;;;;;;;4448818;32;20244;-53
2022/03/28 06:55:59;;;;;;;46.90;28.80;;;;;;;;;;4448180;32;20751;-53
2022/03/28 06:58:25;;;;;;;72.30;29.27;;;;;;;;;;4458912;32;20304;-53
2022/03/28 07:00:50;;;;;;;53.93;29.70;;;;;;;;;;4463831;32;20331;-53
2022/03/28 07:03:16;;;;;;;57.17;29.90;;;;;;;;;;4450073;32;20395;-53
2022/03/28 07:05:42;;;;;;;66.87;39.57;;;;;;;;;;4453053;32;20280;-54
2022/03/28 07:08:08;;;;;;;68.47;36.33;;;;;;;;;;4448020;32;20248;-53
2022/03/28 07:10:34;;;;;;;58.50;35.47;;;;;;;;;;4447583;32;20621;-54
2022/03/28 07:12:59;;;;;;;54.40;30.40;;;;;;;;;;4448335;32;20392;-53
2022/03/28 07:15:27;;;;;;;59.13;26.93;;;;;;;;;;4450191;32;20234;-54
2022/03/28 07:17:56;;;;;;;52.57;27.77;;;;;;;;;;4453165;32;20232;-52
2022/03/28 07:20:22;;;;;;;46.20;26.23;;;;;;;;;;4459937;32;20217;-51
2022/03/28 07:22:48;;;;;;;56.63;29.83;;;;;;;;;;4462036;32;20224;-51
2022/03/28 07:25:14;;;;;;;48.67;27.20;;;;;;;;;;4447788;32;20323;-52
2022/03/28 07:27:41;;;;;;;33.97;20.97;;;;;;;;;;4447999;32;20236;-52
2022/03/28 07:30:08;;;;;;;29.70;17.03;;;;;;;;;;4447957;32;20252;-53
2022/03/28 07:32:34;;;;;;;30.50;18.00;;;;;;;;;;4456249;32;20250;-52
2022/03/28 07:34:59;;;;;;;36.67;16.57;;;;;;;;;;4462208;32;20292;-53
2022/03/28 07:37:26;;;;;;;25.93;14.67;;;;;;;;;;4447519;32;20302;-51
2022/03/28 07:39:52;;;;;;;28.77;15.33;;;;;;;;;;4447730;32;20682;-53
2022/03/28 07:42:17;;;;;;;26.47;15.60;;;;;;;;;;4447982;32;20200;-53
2022/03/28 07:44:42;;;;;;;21.77;14.83;;;;;;;;;;4447794;32;20652;-53
2022/03/28 07:47:08;;;;;;;19.63;13.67;;;;;;;;;;4447297;32;20693;-53
2022/03/28 07:49:35;;;;;;;23.90;15.27;;;;;;;;;;4447748;32;20283;-53
2022/03/28 07:52:02;;;;;;;30.57;14.93;;;;;;;;;;4447587;32;20299;-54
2022/03/28 07:54:28;;;;;;;20.30;14.13;;;;;;;;;;4447803;32;20722;-53
2022/03/28 07:56:55;;;;;;;29.00;18.27;;;;;;;;;;4448862;32;20256;-54
2022/03/28 07:59:21;;;;;;;33.80;19.47;;;;;;;;;;4463141;32;20343;-52
2022/03/28 08:01:46;;;;;;;32.63;14.43;;;;;;;;;;4462386;32;20584;-54
2022/03/28 08:04:12;;;;;;;25.50;15.03;;;;;;;;;;4463000;32;20242;-54
2022/03/28 08:06:37;;;;;;;27.07;14.37;;;;;;;;;;4446823;32;20279;-54
2022/03/28 08:09:04;;;;;;;21.60;14.27;;;;;;;;;;4446209;32;20236;-52
2022/03/28 08:11:30;;;;;;;21.60;14.23;;;;;;;;;;4447214;32;20386;-52
2022/03/28 08:13:56;;;;;;;28.57;14.97;;;;;;;;;;4447613;32;20227;-53
2022/03/28 08:16:22;;;;;;;27.73;14.57;;;;;;;;;;4447327;32;20208;-53
2022/03/28 08:18:47;;;;;;;27.93;15.13;;;;;;;;;;4448207;32;20262;-52
2022/03/28 08:21:13;;;;;;;39.20;15.93;;;;;;;;;;4448382;32;20276;-55
2022/03/28 08:23:38;;;;;;;34.87;17.60;;;;;;;;;;4455148;32;20224;-52
2022/03/28 08:26:04;;;;;;;34.77;17.03;;;;;;;;;;4462528;32;20343;-52
2022/03/28 08:28:31;;;;;;;26.93;16.27;;;;;;;;;;4463170;32;20761;-52
2022/03/28 08:30:56;;;;;;;24.47;15.33;;;;;;;;;;4462846;32;20592;-53
2022/03/28 08:33:22;;;;;;;25.50;14.90;;;;;;;;;;4462879;32;20275;-53
2022/03/28 08:35:47;;;;;;;22.23;12.87;;;;;;;;;;4459070;32;20328;-54
2022/03/28 08:38:12;;;;;;;27.50;15.00;;;;;;;;;;4449727;32;20225;-53
2022/03/28 08:40:41;;;;;;;30.17;14.57;;;;;;;;;;4450187;32;20311;-52
2022/03/28 08:43:08;;;;;;;31.90;14.93;;;;;;;;;;4450219;32;20293;-52
2022/03/28 08:45:37;;;;;;;19.40;12.37;;;;;;;;;;4448736;32;20220;-52
2022/03/28 08:48:05;;;;;;;23.30;12.17;;;;;;;;;;4450250;32;20236;-52
2022/03/28 08:50:31;;;;;;;22.77;12.93;;;;;;;;;;4453049;32;20276;-52
2022/03/28 08:52:57;;;;;;;21.43;12.50;;;;;;;;;;4465706;32;20310;-54
2022/03/28 08:55:24;;;;;;;34.30;11.10;;;;;;;;;;4453605;32;20680;-54
2022/03/28 08:57:50;;;;;;;19.90;10.23;;;;;;;;;;4456629;32;20306;-54
2022/03/28 09:00:15;;;;;;;18.33;11.67;;;;;;;;;;4464992;32;20324;-52
2022/03/28 09:02:47;;;;;;;23.37;10.93;;;;;;;;;;4464073;32;20367;-52
2022/03/28 09:05:14;;;;;;;23.20;11.50;;;;;;;;;;4458464;32;20208;-52
2022/03/28 09:07:40;;;;;;;20.43;11.83;;;;;;;;;;4449435;32;20290;-53
2022/03/28 09:10:11;;;;;;;19.73;9.73;;;;;;;;;;4449726;32;20267;-54
2022/03/28 09:12:55;;;;;;;23.60;11.37;;;;;;;;;;4451890;32;20565;-53
2022/03/28 09:15:21;;;;;;;25.53;11.10;;;;;;;;;;4465504;32;20250;-53
2022/03/28 09:17:54;;;;;;;22.53;11.63;;;;;;;;;;4454334;32;20236;-52
2022/03/28 09:20:22;;;;;;;26.93;12.37;;;;;;;;;;4450120;32;20429;-53
2022/03/28 09:22:49;;;;;;;31.30;12.53;;;;;;;;;;4449832;32;20283;-52
2022/03/28 09:25:16;;;;;;;33.60;11.80;;;;;;;;;;4449733;32;20275;-52
2022/03/28 09:27:44;;;;;;;25.60;12.13;;;;;;;;;;4450205;32;20561;-53
2022/03/28 09:30:13;;;;;;;23.57;12.43;;;;;;;;;;4449998;32;20215;-52
2022/03/28 09:32:41;;;;;;;22.37;12.73;;;;;;;;;;4449733;32;20238;-53
2022/03/28 09:35:12;;;;;;;18.80;12.30;;;;;;;;;;4449234;32;20260;-54
2022/03/28 09:38:08;;;;;;;25.13;12.50;;;;;;;;;;4447728;32;20233;-52
2022/03/28 09:40:40;;;;;;;27.47;14.17;;;;;;;;;;4449284;32;20268;-53
2022/03/28 09:43:07;;;;;;;26.83;13.20;;;;;;;;;;4449399;32;20537;-53
2022/03/28 09:45:38;;;;;;;19.67;13.40;;;;;;;;;;4449008;32;20292;-52
2022/03/28 09:48:10;;;;;;;32.63;13.80;;;;;;;;;;4448826;32;20360;-52
2022/03/28 09:50:38;;;;;;;27.30;14.07;;;;;;;;;;4454073;32;20694;-52
2022/03/28 09:53:25;;;;;;;25.27;13.93;;;;;;;;;;4465217;32;20286;-53
2022/03/28 09:56:03;;;;;;;28.13;13.40;;;;;;;;;;4465395;32;20196;-53
2022/03/28 09:58:42;;;;;;;22.57;12.83;;;;;;;;;;4448799;32;20710;-53
2022/03/28 10:01:11;;;;;;;28.37;13.17;;;;;;;;;;4447926;32;20279;-52
2022/03/28 10:03:37;;;;;;;23.60;13.00;;;;;;;;;;4449527;32;20720;-51
2022/03/28 10:06:05;;;;;;;23.63;14.20;;;;;;;;;;4453892;32;20280;-52
2022/03/28 10:08:31;;;;;;;31.63;13.60;;;;;;;;;;4448692;32;20250;-53
2022/03/28 10:10:58;;;;;;;30.73;12.97;;;;;;;;;;4448653;32;20385;-53
2022/03/28 10:13:24;;;;;;;25.33;12.57;;;;;;;;;;4448920;32;20702;-54
2022/03/28 10:15:50;;;;;;;24.53;12.17;;;;;;;;;;4448981;32;20271;-54
2022/03/28 10:18:15;;;;;;;25.37;12.00;;;;;;;;;;4448859;32;20258;-54
2022/03/28 10:20:44;;;;;;;24.00;12.13;;;;;;;;;;4448827;32;20604;-59
2022/03/28 10:23:14;;;;;;;17.70;10.73;;;;;;;;;;4453344;32;20303;-53
2022/03/28 10:25:41;;;;;;;30.80;10.77;;;;;;;;;;4464658;32;20280;-53
2022/03/28 10:28:08;;;;;;;20.23;10.57;;;;;;;;;;4463152;32;20240;-54
2022/03/28 10:30:34;;;;;;;15.88;9.40;;;;;;;;;;4464358;32;20211;-54
2022/03/28 10:33:11;;;;;;;20.42;9.93;;;;;;;;;;4462765;32;20353;-54
2022/03/28 10:35:38;;;;;;;19.05;9.45;;;;;;;;;;4458373;32;20762;-52
2022/03/28 10:38:17;;;;;;;20.05;10.63;;;;;;;;;;4448409;32;20251;-52
2022/03/28 10:41:14;;;;;;;27.40;9.20;;;;;;;;;;4460161;32;20600;-54
2022/03/28 10:43:39;;;;;;;15.23;8.93;;;;;;;;;;4464404;32;20284;-54
2022/03/28 10:46:10;;;;;;;16.63;8.67;;;;;;;;;;4464019;32;20745;-54
2022/03/28 10:48:39;;;;;;;14.82;9.10;;;;;;;;;;4462955;32;20267;-53
2022/03/28 10:51:29;;;;;;;16.27;9.50;;;;;;;;;;4457327;32;20258;-52
2022/03/28 10:53:58;;;;;;;16.27;9.73;;;;;;;;;;4448810;32;20557;-53
2022/03/28 10:56:31;;;;;;;15.88;9.15;;;;;;;;;;4447320;32;20257;-52
2022/03/28 10:58:59;;;;;;;16.02;9.27;;;;;;;;;;4462318;32;20236;-53
2022/03/28 11:01:29;;;;;;;17.17;9.45;;;;;;;;;;4463697;32;20583;-53
2022/03/28 11:04:04;;;;;;;16.02;9.13;;;;;;;;;;4463632;32;20247;-53
2022/03/28 11:07:01;;;;;;;22.58;11.10;;;;;;;;;;4448569;32;20413;-52
2022/03/28 11:09:46;;;;;;;19.08;9.45;;;;;;;;;;4448487;32;20240;-53
2022/03/28 11:12:15;;;;;;;18.62;9.07;;;;;;;;;;4447937;32;20634;-53
2022/03/28 11:14:51;;;;;;;25.17;11.55;;;;;;;;;;4446860;32;20341;-53
2022/03/28 11:17:22;;;;;;;23.20;10.82;;;;;;;;;;4448177;32;20733;-52
2022/03/28 11:19:55;;;;;;;22.62;9.82;;;;;;;;;;4448059;32;20209;-54
2022/03/28 11:22:49;;;;;;;23.38;13.45;;;;;;;;;;4447902;32;20219;-54
2022/03/28 11:25:26;;;;;;;20.20;9.85;;;;;;;;;;4448143;32;20265;-53
2022/03/28 11:28:14;;;;;;;23.50;10.88;;;;;;;;;;4448425;32;20284;-53
2022/03/28 11:30:45;;;;;;;17.15;9.82;;;;;;;;;;4448122;32;20283;-53
2022/03/28 11:33:14;;;;;;;20.37;11.02;;;;;;;;;;4447205;32;20695;-54
2022/03/28 11:35:49;;;;;;;23.25;10.93;;;;;;;;;;4447122;32;20322;-53
2022/03/28 11:38:19;;;;;;;16.05;9.48;;;;;;;;;;4447531;32;20541;-54
2022/03/28 11:40:44;;;;;;;13.93;9.80;;;;;;;;;;4447101;32;20324;-54
2022/03/28 11:43:10;;;;;;;18.20;10.40;;;;;;;;;;4447905;32;20248;-54
2022/03/28 11:45:44;;;;;;;18.60;9.85;;;;;;;;;;4448455;32;20291;-52
2022/03/28 11:48:10;;;;;;;18.70;9.18;;;;;;;;;;4448257;32;20343;-53
2022/03/28 11:50:35;;;;;;;15.32;9.55;;;;;;;;;;4448562;32;20329;-55
2022/03/28 11:53:01;;;;;;;27.80;9.90;;;;;;;;;;4448106;32;20243;-53
2022/03/28 11:55:29;;;;;;;22.25;10.05;;;;;;;;;;4447169;32;20781;-54
2022/03/28 11:58:15;;;;;;;24.15;9.27;;;;;;;;;;4455891;32;20700;-54
2022/03/28 12:00:42;;;;;;;16.50;9.38;;;;;;;;;;4464195;32;20589;-53
2022/03/28 12:03:12;;;;;;;20.58;9.27;;;;;;;;;;4463707;32;20652;-53
2022/03/28 12:05:47;;;;;;;16.58;8.82;;;;;;;;;;4452898;32;20232;-53
2022/03/28 12:08:18;;;;;;;15.07;8.88;;;;;;;;;;4461902;32;20370;-52
2022/03/28 12:10:51;;;;;;;18.70;8.60;;;;;;;;;;4451773;32;20209;-52
2022/03/28 12:13:18;;;;;;;21.05;9.93;;;;;;;;;;4451026;32;20215;-52
2022/03/28 12:15:47;;;;;;;18.75;10.10;;;;;;;;;;4451377;32;20232;-54
2022/03/28 12:18:18;;;;;;;19.08;10.73;;;;;;;;;;4450154;32;20249;-54
2022/03/28 12:20:45;;;;;;;21.52;10.38;;;;;;;;;;4449649;32;20295;-53
2022/03/28 12:23:14;;;;;;;23.23;8.73;;;;;;;;;;4451279;32;20231;-53
2022/03/28 12:25:42;;;;;;;20.75;10.07;;;;;;;;;;4451416;32;20267;-54
2022/03/28 12:28:10;;;;;;;20.80;10.65;;;;;;;;;;4451358;32;20247;-53
2022/03/28 12:30:57;;;;;;;24.05;10.43;;;;;;;;;;4451599;32;20214;-53
2022/03/28 12:33:26;;;;;;;19.27;10.15;;;;;;;;;;4451088;32;20243;-53
2022/03/28 12:36:06;;;;;;;17.27;9.23;;;;;;;;;;4451149;32;20205;-54
2022/03/28 12:38:43;;;;;;;15.10;9.98;;;;;;;;;;4450996;32;20670;-54
2022/03/28 12:41:12;;;;;;;23.58;10.10;;;;;;;;;;4466133;32;20196;-53
2022/03/28 12:43:45;;;;;;;26.00;9.13;;;;;;;;;;4459536;32;20249;-53
2022/03/28 12:46:10;;;;;;;15.65;9.00;;;;;;;;;;4450827;32;20228;-53
2022/03/28 12:48:39;;;;;;;22.02;9.23;;;;;;;;;;4450971;32;20332;-54
2022/03/28 12:51:05;;;;;;;19.87;9.40;;;;;;;;;;4450582;32;20567;-54
2022/03/28 12:53:33;;;;;;;17.58;10.57;;;;;;;;;;4449293;32;20235;-53
2022/03/28 12:56:21;;;;;;;30.95;11.30;;;;;;;;;;4450602;32;21097;-54
2022/03/28 12:58:53;;;;;;;22.90;9.98;;;;;;;;;;4464241;32;20228;-53
2022/03/28 13:01:30;;;;;;;23.38;10.02;;;;;;;;;;4466461;32;20201;-53
2022/03/28 13:04:09;;;;;;;19.00;10.05;;;;;;;;;;4466543;32;20215;-54
2022/03/28 13:06:39;;;;;;;20.15;9.52;;;;;;;;;;4449329;32;20212;-54
2022/03/28 13:09:04;;;;;;;23.17;10.02;;;;;;;;;;4450978;32;20641;-53
2022/03/28 13:11:32;;;;;;;23.20;12.37;;;;;;;;;;4448934;32;20243;-54
2022/03/28 13:13:58;;;;;;;36.38;13.35;;;;;;;;;;4464866;32;20227;-53
2022/03/28 13:16:25;;;;;;;28.40;14.65;;;;;;;;;;4466133;32;20212;-54
2022/03/28 13:19:08;;;;;;;38.03;12.35;;;;;;;;;;4465906;32;20298;-51
2022/03/28 13:21:37;;;;;;;22.80;12.73;;;;;;;;;;4465106;32;20680;-52
2022/03/28 13:24:13;;;;;;;25.58;10.07;;;;;;;;;;4454947;32;20246;-54
2022/03/28 13:26:44;;;;;;;13.80;9.38;;;;;;;;;;4450428;32;20638;-53
2022/03/28 13:29:25;;;;;;;23.20;11.25;;;;;;;;;;4450063;32;20315;-54
2022/03/28 13:31:53;;;;;;;22.02;11.73;;;;;;;;;;4450616;32;20223;-53
2022/03/28 13:34:18;;;;;;;19.62;10.43;;;;;;;;;;4450622;32;20239;-53
2022/03/28 13:36:44;;;;;;;25.37;11.65;;;;;;;;;;4450319;32;20197;-53
2022/03/28 13:39:10;;;;;;;25.65;10.55;;;;;;;;;;4452637;32;20345;-55
2022/03/28 13:41:36;;;;;;;19.73;10.32;;;;;;;;;;4466062;32;20259;-54
2022/03/28 13:44:06;;;;;;;15.32;9.45;;;;;;;;;;4465877;32;20626;-54
2022/03/28 13:46:32;;;;;;;24.63;9.45;;;;;;;;;;4465843;32;20266;-54
2022/03/28 13:48:58;;;;;;;16.45;10.25;;;;;;;;;;4465842;32;20278;-52
2022/03/28 13:51:26;;;;;;;19.95;10.57;;;;;;;;;;4465539;32;20547;-52
2022/03/28 13:53:51;;;;;;;21.12;8.77;;;;;;;;;;4465707;32;20215;-53
2022/03/28 13:56:17;;;;;;;13.27;8.20;;;;;;;;;;4465621;32;20219;-53
2022/03/28 13:58:42;;;;;;;18.62;9.63;;;;;;;;;;4452752;32;20256;-53
2022/03/28 14:01:08;;;;;;;14.35;6.97;;;;;;;;;;4450032;32;20288;-54
2022/03/28 14:03:34;;;;;;;16.27;8.73;;;;;;;;;;4448851;32;20232;-54
2022/03/28 14:06:01;;;;;;;18.30;8.70;;;;;;;;;;4454548;32;20387;-53
2022/03/28 14:08:28;;;;;;;15.57;8.30;;;;;;;;;;4449464;32;20248;-53
2022/03/28 14:10:54;;;;;;;14.18;8.68;;;;;;;;;;4449994;32;20494;-53
2022/03/28 14:13:20;;;;;;;16.20;8.85;;;;;;;;;;4459936;32;20239;-53
2022/03/28 14:15:45;;;;;;;21.40;9.05;;;;;;;;;;4465309;32;20382;-53
2022/03/28 14:18:13;;;;;;;18.45;9.95;;;;;;;;;;4465327;32;20682;-53
2022/03/28 14:20:38;;;;;;;15.00;7.95;;;;;;;;;;4465137;32;20209;-53
2022/03/28 14:23:05;;;;;;;20.12;7.75;;;;;;;;;;4465132;32;20582;-53
2022/03/28 14:25:32;;;;;;;16.90;7.68;;;;;;;;;;4453864;32;20208;-52